Buoy 13570

sailwx.info

Track history (hours):
 
Tides and Currents Weather Stations Pressure Air Temp Water Temp Dewpoint Dewpoint Depression Visibility Wind Speed Wind Dir Waves Ship Positions

Drifting buoy 13570

Last reported at 2016-Mar-14 20:00 UTC. Time now 2016-Oct-01 17:19 UTC.
Position N 39°13' W 009°18'.
Warning: this ship's position is months out of date.

Barometer 1002.3 mb
Water temperature 13.3 ° C

Date/timePositionNaut miles runAvg speedWind from/ knotsBaromVisibWave heightAir tempDewpointWater temp
2016-Mar-14 20:00N 39°13' W 009°18'0 0.0 1002.3 13.3
2016-Mar-14 17:00N 39°13' W 009°18'1 0.2 1001.5 16.2
2016-Mar-14 13:00N 39°13' W 009°17'0 0.0 1001.6 18.0
2016-Mar-14 09:00N 39°13' W 009°17'1 0.1 1002.7 16.2
2016-Mar-13 20:00N 39°13' W 009°17'0 0.0 1003.8 13.2
2016-Mar-13 18:00N 39°13' W 009°17'0 0.1 1003.6 15.3
2016-Mar-13 11:00N 39°13' W 009°17'1 0.1 1007.0 13.0
2016-Mar-13 04:00N 39°14' W 009°17'1 0.1 1006.5 12.5
2016-Mar-12 20:00N 39°13' W 009°17'1 0.3 1008.3 13.3
2016-Mar-12 18:00N 39°13' W 009°18'0 0.0 1007.8 13.5
2016-Mar-11 20:00N 39°13' W 009°17'0 0.0 1009.1 13.2
2016-Mar-11 19:00N 39°13' W 009°17'0 0.0 1008.8 13.2
2016-Mar-11 17:00N 39°13' W 009°17'0 0.0 1008.0 13.2
2016-Mar-11 16:00N 39°13' W 009°17'0 0.1 1007.6 13.2
2016-Mar-11 15:00N 39°13' W 009°17'0 0.0 1008.0 13.2
2016-Mar-11 10:00N 39°13' W 009°17'0 0.1 1009.7 12.8
2016-Mar-11 05:00N 39°14' W 009°17'0 0.0 1008.3 12.7
2016-Mar-10 20:00N 39°13' W 009°17'1 0.9 1010.2 13.7
2016-Mar-10 19:00N 39°13' W 009°18'9 9.0 1009.9 13.0
2016-Mar-10 18:00N 39°22' W 009°22'0 0.1 1009.4 16.0
2016-Mar-10 14:00N 39°21' W 009°23'0 0.2 1023.7 17.4
2016-Mar-10 13:00N 39°21' W 009°22'0 0.0 1024.2 15.9
2016-Mar-10 11:00N 39°21' W 009°22'0 0.0 1024.6 14.0
2016-Mar-10 10:00N 39°21' W 009°22'1 0.4 1024.7 13.2
2016-Mar-10 07:00N 39°21' W 009°24'2 0.5 1022.9 12.8
2016-Mar-10 04:00N 39°22' W 009°22'0 0.0 1022.2 13.0
2016-Mar-10 03:00N 39°22' W 009°22'0 0.0 1022.5 12.9
2016-Mar-09 11:00N 39°21' W 009°22'0 0.0 1025.0 15.3
2016-Mar-09 10:00N 39°21' W 009°22'0 0.1 1025.6 13.6
2016-Mar-09 09:00N 39°21' W 009°22'0 0.0 1025.7 13.2
2016-Mar-09 07:00N 39°21' W 009°22'0 0.1 1024.9 13.1
2016-Mar-09 06:00N 39°21' W 009°22'0 0.4 1024.3 13.0
2016-Mar-09 05:00N 39°21' W 009°22'0 0.3 1024.3 12.9
2016-Mar-09 04:00N 39°21' W 009°22'1 1.0 1024.1 13.0
2016-Mar-09 03:00N 39°21' W 009°23'1 0.2 1024.5 13.1
2016-Mar-08 21:00N 39°21' W 009°21'0 0.4 1026.0 15.0
2016-Mar-08 20:00N 39°21' W 009°22'0 0.1 1025.8 15.7
2016-Mar-08 19:00N 39°21' W 009°22'0 0.0 1025.4 16.7
2016-Mar-08 18:00N 39°21' W 009°22'0 0.1 1024.7 17.4
2016-Mar-08 15:00N 39°21' W 009°22'0 0.0 1024.1 19.9
2016-Mar-08 14:00N 39°21' W 009°22'1 0.3 1024.6 19.4
2016-Mar-08 11:00N 39°21' W 009°21'1 0.3 1025.2 13.0
2016-Mar-08 08:00N 39°21' W 009°22'0 0.2 1024.3 11.8
2016-Mar-08 06:00N 39°21' W 009°21'0 0.0 1022.7 11.8
2016-Mar-08 05:00N 39°21' W 009°21'0 0.2 1021.7 11.9
2016-Mar-08 03:00N 39°21' W 009°22'0 0.0 1021.1 12.3
2016-Mar-07 23:00N 39°21' W 009°22'0 0.1 1020.8 13.2
2016-Mar-07 21:00N 39°21' W 009°22'0 0.1 1020.1 13.7
2016-Mar-07 19:00N 39°21' W 009°22'1 1.3 1019.2 14.6
2016-Mar-07 18:00N 39°21' W 009°24'1 0.5 1018.5 15.2
2016-Mar-07 15:00N 39°21' W 009°22'0 0.2 1017.2 17.4
2016-Mar-07 14:00N 39°21' W 009°22'0 0.1 1017.3 17.5
2016-Mar-07 11:00N 39°21' W 009°22'0 0.3 1017.6 13.2
2016-Mar-07 10:00N 39°21' W 009°22'0 0.1 1017.7 12.8
2016-Mar-07 08:00N 39°21' W 009°22'1 0.3 1016.3 12.9
2016-Mar-07 06:00N 39°21' W 009°21'0 0.2 1015.5 13.5
2016-Mar-07 04:00N 39°21' W 009°22'1 1.4 1016.2 13.2
2016-Mar-07 03:00N 39°21' W 009°24'1 0.1 1017.6 13.2
2016-Mar-06 18:00N 39°21' W 009°22'0 0.0 1021.6 18.1
2016-Mar-06 17:00N 39°21' W 009°22'0 0.4 1021.6 18.7
2016-Mar-06 16:00N 39°21' W 009°22'0 0.2 1021.3 18.7
2016-Mar-06 15:00N 39°21' W 009°21'0 0.1 1021.6 18.6
2016-Mar-06 12:00N 39°21' W 009°22'0 0.1 1022.9 14.3
2016-Mar-06 10:00N 39°21' W 009°22'0 0.0 1022.9 12.0
2016-Mar-06 09:00N 39°21' W 009°22'1 0.1 1022.3 11.8
2016-Mar-06 03:00N 39°21' W 009°23'0 0.0 1020.4 12.5
2016-Mar-06 01:00N 39°21' W 009°23'2 0.4 1020.2 13.0
2016-Mar-05 21:00N 39°21' W 009°20'0 0.0 1019.6 14.8
2016-Mar-05 20:00N 39°21' W 009°20'1 0.5 1019.4 15.5
2016-Mar-05 19:00N 39°21' W 009°20'2 1.6 1019.0 16.5
2016-Mar-05 18:00N 39°21' W 009°22'0 0.0 1018.7 17.2
2016-Mar-05 15:00N 39°21' W 009°22'0 0.0 1018.0 19.4
2016-Mar-05 14:00N 39°21' W 009°22'0 0.0 1018.0 19.1
2016-Mar-05 10:00N 39°21' W 009°22'0 0.4 1018.1 12.5
2016-Mar-05 09:00N 39°21' W 009°22'0 0.1 1017.8 11.8
2016-Mar-05 07:00N 39°21' W 009°22'0 0.0 1016.5 11.7
2016-Mar-05 06:00N 39°21' W 009°22'0 0.2 1016.1 11.7
2016-Mar-05 05:00N 39°21' W 009°22'0 0.1 1016.1 11.8
2016-Mar-05 02:00N 39°21' W 009°22'0 0.0 1016.1 12.4
2016-Mar-04 22:00N 39°21' W 009°22'0 0.3 1015.3 13.6
2016-Mar-04 21:00N 39°21' W 009°21'1 0.5 1014.9 14.0
2016-Mar-04 20:00N 39°21' W 009°22'   1014.7 14.6
Track history (hours):
 
Tides and Currents Weather Stations Pressure Air Temp Water Temp Dewpoint Dewpoint Depression Visibility Wind Speed Wind Dir Waves Ship Positions

Drifting buoy 13570

Last reported at 2016-Mar-14 20:00 UTC. Time now 2016-Oct-01 17:19 UTC.
Position N 39°13' W 009°18'.
Warning: this ship's position is months out of date.

Barometer 1002.3 mb
Water temperature 13.3 ° C

Date/timePositionNaut miles runAvg speedWind from/ knotsBaromVisibWave heightAir tempDewpointWater temp
2016-Mar-14 20:00N 39°13' W 009°18'0 0.0 1002.3 13.3
2016-Mar-14 17:00N 39°13' W 009°18'1 0.2 1001.5 16.2
2016-Mar-14 13:00N 39°13' W 009°17'0 0.0 1001.6 18.0
2016-Mar-14 09:00N 39°13' W 009°17'1 0.1 1002.7 16.2
2016-Mar-13 20:00N 39°13' W 009°17'0 0.0 1003.8 13.2
2016-Mar-13 18:00N 39°13' W 009°17'0 0.1 1003.6 15.3
2016-Mar-13 11:00N 39°13' W 009°17'1 0.1 1007.0 13.0
2016-Mar-13 04:00N 39°14' W 009°17'1 0.1 1006.5 12.5
2016-Mar-12 20:00N 39°13' W 009°17'1 0.3 1008.3 13.3
2016-Mar-12 18:00N 39°13' W 009°18'0 0.0 1007.8 13.5
2016-Mar-11 20:00N 39°13' W 009°17'0 0.0 1009.1 13.2
2016-Mar-11 19:00N 39°13' W 009°17'0 0.0 1008.8 13.2
2016-Mar-11 17:00N 39°13' W 009°17'0 0.0 1008.0 13.2
2016-Mar-11 16:00N 39°13' W 009°17'0 0.1 1007.6 13.2
2016-Mar-11 15:00N 39°13' W 009°17'0 0.0 1008.0 13.2
2016-Mar-11 10:00N 39°13' W 009°17'0 0.1 1009.7 12.8
2016-Mar-11 05:00N 39°14' W 009°17'0 0.0 1008.3 12.7
2016-Mar-10 20:00N 39°13' W 009°17'1 0.9 1010.2 13.7
2016-Mar-10 19:00N 39°13' W 009°18'9 9.0 1009.9 13.0
2016-Mar-10 18:00N 39°22' W 009°22'0 0.1 1009.4 16.0
2016-Mar-10 14:00N 39°21' W 009°23'0 0.2 1023.7 17.4
2016-Mar-10 13:00N 39°21' W 009°22'0 0.0 1024.2 15.9
2016-Mar-10 11:00N 39°21' W 009°22'0 0.0 1024.6 14.0
2016-Mar-10 10:00N 39°21' W 009°22'1 0.4 1024.7 13.2
2016-Mar-10 07:00N 39°21' W 009°24'2 0.5 1022.9 12.8
2016-Mar-10 04:00N 39°22' W 009°22'0 0.0 1022.2 13.0
2016-Mar-10 03:00N 39°22' W 009°22'0 0.0 1022.5 12.9
2016-Mar-09 11:00N 39°21' W 009°22'0 0.0 1025.0 15.3
2016-Mar-09 10:00N 39°21' W 009°22'0 0.1 1025.6 13.6
2016-Mar-09 09:00N 39°21' W 009°22'0 0.0 1025.7 13.2
2016-Mar-09 07:00N 39°21' W 009°22'0 0.1 1024.9 13.1
2016-Mar-09 06:00N 39°21' W 009°22'0 0.4 1024.3 13.0
2016-Mar-09 05:00N 39°21' W 009°22'0 0.3 1024.3 12.9
2016-Mar-09 04:00N 39°21' W 009°22'1 1.0 1024.1 13.0
2016-Mar-09 03:00N 39°21' W 009°23'1 0.2 1024.5 13.1
2016-Mar-08 21:00N 39°21' W 009°21'0 0.4 1026.0 15.0
2016-Mar-08 20:00N 39°21' W 009°22'0 0.1 1025.8 15.7
2016-Mar-08 19:00N 39°21' W 009°22'0 0.0 1025.4 16.7
2016-Mar-08 18:00N 39°21' W 009°22'0 0.1 1024.7 17.4
2016-Mar-08 15:00N 39°21' W 009°22'0 0.0 1024.1 19.9
2016-Mar-08 14:00N 39°21' W 009°22'1 0.3 1024.6 19.4
2016-Mar-08 11:00N 39°21' W 009°21'1 0.3 1025.2 13.0
2016-Mar-08 08:00N 39°21' W 009°22'0 0.2 1024.3 11.8
2016-Mar-08 06:00N 39°21' W 009°21'0 0.0 1022.7 11.8
2016-Mar-08 05:00N 39°21' W 009°21'0 0.2 1021.7 11.9
2016-Mar-08 03:00N 39°21' W 009°22'0 0.0 1021.1 12.3
2016-Mar-07 23:00N 39°21' W 009°22'0 0.1 1020.8 13.2
2016-Mar-07 21:00N 39°21' W 009°22'0 0.1 1020.1 13.7
2016-Mar-07 19:00N 39°21' W 009°22'1 1.3 1019.2 14.6
2016-Mar-07 18:00N 39°21' W 009°24'1 0.5 1018.5 15.2
2016-Mar-07 15:00N 39°21' W 009°22'0 0.2 1017.2 17.4
2016-Mar-07 14:00N 39°21' W 009°22'0 0.1 1017.3 17.5
2016-Mar-07 11:00N 39°21' W 009°22'0 0.3 1017.6 13.2
2016-Mar-07 10:00N 39°21' W 009°22'0 0.1 1017.7 12.8
2016-Mar-07 08:00N 39°21' W 009°22'1 0.3 1016.3 12.9
2016-Mar-07 06:00N 39°21' W 009°21'0 0.2 1015.5 13.5
2016-Mar-07 04:00N 39°21' W 009°22'1 1.4 1016.2 13.2
2016-Mar-07 03:00N 39°21' W 009°24'1 0.1 1017.6 13.2
2016-Mar-06 18:00N 39°21' W 009°22'0 0.0 1021.6 18.1
2016-Mar-06 17:00N 39°21' W 009°22'0 0.4 1021.6 18.7
2016-Mar-06 16:00N 39°21' W 009°22'0 0.2 1021.3 18.7
2016-Mar-06 15:00N 39°21' W 009°21'0 0.1 1021.6 18.6
2016-Mar-06 12:00N 39°21' W 009°22'0 0.1 1022.9 14.3
2016-Mar-06 10:00N 39°21' W 009°22'0 0.0 1022.9 12.0
2016-Mar-06 09:00N 39°21' W 009°22'1 0.1 1022.3 11.8
2016-Mar-06 03:00N 39°21' W 009°23'0 0.0 1020.4 12.5
2016-Mar-06 01:00N 39°21' W 009°23'2 0.4 1020.2 13.0
2016-Mar-05 21:00N 39°21' W 009°20'0 0.0 1019.6 14.8
2016-Mar-05 20:00N 39°21' W 009°20'1 0.5 1019.4 15.5
2016-Mar-05 19:00N 39°21' W 009°20'2 1.6 1019.0 16.5
2016-Mar-05 18:00N 39°21' W 009°22'0 0.0 1018.7 17.2
2016-Mar-05 15:00N 39°21' W 009°22'0 0.0 1018.0 19.4
2016-Mar-05 14:00N 39°21' W 009°22'0 0.0 1018.0 19.1
2016-Mar-05 10:00N 39°21' W 009°22'0 0.4 1018.1 12.5
2016-Mar-05 09:00N 39°21' W 009°22'0 0.1 1017.8 11.8
2016-Mar-05 07:00N 39°21' W 009°22'0 0.0 1016.5 11.7
2016-Mar-05 06:00N 39°21' W 009°22'0 0.2 1016.1 11.7
2016-Mar-05 05:00N 39°21' W 009°22'0 0.1 1016.1 11.8
2016-Mar-05 02:00N 39°21' W 009°22'0 0.0 1016.1 12.4
2016-Mar-04 22:00N 39°21' W 009°22'0 0.3 1015.3 13.6
2016-Mar-04 21:00N 39°21' W 009°21'1 0.5 1014.9 14.0
2016-Mar-04 20:00N 39°21' W 009°22'   1014.7 14.6

Dump ship's entire track history